Time;durP1;ratioP1;P1;durP2;ratioP2;P2;SDS_P1;SDS_P2;PMS_P1;PMS_P2;Temp;Humidity;BMP_temperature;BMP_pressure;BME280_temperature;BME280_humidity;BME280_pressure;Samples;Min_cycle;Max_cycle;Signal;HPM_P1;HPM_P2
2021/12/18 00:00:00;;;;;;;16.80;6.70;;;;;;;2.75;81.98;101714.97;126811;1312;107690;-81
2021/12/18 00:03:07;;;;;;;19.10;7.20;;;;;;;2.73;82.04;101717.55;127174;1309;108841;-81
2021/12/18 00:06:13;;;;;;;14.10;5.60;;;;;;;2.68;82.11;101704.04;126989;1310;109011;-81
2021/12/18 00:09:18;;;;;;;12.50;6.10;;;;;;;2.62;82.36;101714.13;126887;1309;108677;-80
2021/12/18 00:12:24;;;;;;;13.10;5.70;;;;;;;2.61;82.37;101721.40;126846;1316;106655;-82
2021/12/18 00:15:30;;;;;;;14.10;6.00;;;;;;;2.60;82.39;101735.13;126531;1309;108707;-82
2021/12/18 00:18:35;;;;;;;14.10;6.40;;;;;;;2.60;82.40;101729.35;126338;1309;108712;-82
2021/12/18 00:21:41;;;;;;;11.20;5.90;;;;;;;2.60;82.46;101725.13;126406;1309;108897;-82
2021/12/18 00:24:46;;;;;;;17.60;6.80;;;;;;;2.56;82.49;101723.52;126830;1315;109750;-80
2021/12/18 00:27:52;;;;;;;19.30;7.90;;;;;;;2.52;82.67;101722.30;126738;1309;108855;-80
2021/12/18 00:30:57;;;;;;;17.80;8.00;;;;;;;2.47;82.68;101720.94;126356;1314;109219;-81
2021/12/18 00:34:03;;;;;;;14.50;7.40;;;;;;;2.46;82.71;101708.88;126315;1312;108767;-81
2021/12/18 00:37:08;;;;;;;22.10;9.40;;;;;;;2.46;82.75;101714.11;126335;1309;109136;-81
2021/12/18 00:40:21;;;;;;;15.80;7.80;;;;;;;2.44;82.70;101720.00;126425;1312;106889;-81
2021/12/18 00:43:33;;;;;;;17.40;8.50;;;;;;;2.39;82.77;101735.32;126336;1309;107484;-81
2021/12/18 00:46:41;;;;;;;17.50;7.30;;;;;;;2.34;82.83;101741.98;126652;1309;110305;-81
2021/12/18 00:49:46;;;;;;;14.80;7.00;;;;;;;2.34;83.00;101743.08;126405;1312;108693;-80
2021/12/18 00:52:52;;;;;;;18.30;7.90;;;;;;;2.36;82.93;101754.54;126811;1309;107752;-78
2021/12/18 00:55:58;;;;;;;17.10;8.10;;;;;;;2.36;82.94;101754.58;126689;1312;108686;-78
2021/12/18 00:59:03;;;;;;;16.80;8.10;;;;;;;2.31;83.19;101757.39;126624;1310;108723;-80
2021/12/18 01:02:09;;;;;;;19.30;8.50;;;;;;;2.26;83.30;101753.05;126635;1309;107191;-78
2021/12/18 01:05:14;;;;;;;14.40;7.00;;;;;;;2.23;83.46;101751.60;126782;1309;108717;-77
2021/12/18 01:08:20;;;;;;;16.90;7.40;;;;;;;2.21;83.43;101763.27;126653;1309;107660;-81
2021/12/18 01:11:33;;;;;;;16.30;8.00;;;;;;;2.21;83.59;101764.66;126845;1309;108775;-81
2021/12/18 01:14:52;;;;;;;17.20;8.30;;;;;;;2.20;83.46;101759.27;126872;1316;108606;-79
2021/12/18 01:24:59;;;;;;;15.20;6.80;;;;;;;2.16;83.57;101753.83;126301;1313;108964;-80
2021/12/18 01:28:06;;;;;;;17.00;7.70;;;;;;;2.20;83.74;101752.96;126386;1312;108810;-83
2021/12/18 01:31:11;;;;;;;19.60;8.50;;;;;;;2.21;83.43;101759.20;126761;1309;106643;-80
2021/12/18 01:34:17;;;;;;;16.90;7.80;;;;;;;2.20;83.40;101758.74;126671;1309;106923;-76
2021/12/18 01:37:22;;;;;;;19.30;7.90;;;;;;;2.14;83.44;101752.33;127109;1310;108761;-79
2021/12/18 01:40:28;;;;;;;15.70;7.50;;;;;;;2.08;83.45;101753.23;126898;1309;109013;-81
2021/12/18 01:44:22;;;;;;;18.00;7.40;;;;;;;2.12;83.53;101746.61;126965;1309;108239;-82
2021/12/18 01:53:56;;;;;;;19.00;8.30;;;;;;;2.11;83.40;101755.43;126944;1309;108791;-80
2021/12/18 01:57:02;;;;;;;17.00;7.80;;;;;;;2.08;83.56;101767.31;126908;1309;108938;-77
2021/12/18 02:00:17;;;;;;;18.00;7.30;;;;;;;2.07;83.70;101767.85;126913;1309;108822;-78
2021/12/18 02:03:23;;;;;;;20.60;8.50;;;;;;;2.06;83.84;101770.02;126969;1309;109014;-79
2021/12/18 02:06:28;;;;;;;16.70;8.30;;;;;;;2.09;83.86;101773.21;126781;1309;226168;-78
2021/12/18 02:09:52;;;;;;;18.00;7.60;;;;;;;2.16;83.71;101772.59;126617;1309;109000;-77
2021/12/18 02:13:05;;;;;;;17.80;7.40;;;;;;;2.24;83.54;101766.48;126915;1314;108595;-78
2021/12/18 02:22:55;;;;;;;16.70;7.80;;;;;;;2.28;83.50;101777.38;126482;1309;109014;-77
2021/12/18 02:26:01;;;;;;;16.30;8.20;;;;;;;2.30;83.55;101779.77;126648;1309;108808;-78
2021/12/18 02:29:10;;;;;;;13.10;6.60;;;;;;;2.32;83.56;101768.98;126443;1309;108903;-78
2021/12/18 02:32:20;;;;;;;14.70;7.40;;;;;;;2.35;83.60;101764.29;126664;1315;109793;-79
2021/12/18 02:35:32;;;;;;;15.20;6.50;;;;;;;2.34;83.50;101762.39;126717;1309;109714;-77
2021/12/18 02:38:59;;;;;;;15.40;7.30;;;;;;;2.41;83.56;101758.45;126921;1313;107850;-76
2021/12/18 02:42:11;;;;;;;15.40;6.20;;;;;;;2.48;83.55;101760.39;126612;1309;109841;-76
2021/12/18 02:45:18;;;;;;;15.80;6.70;;;;;;;2.55;83.39;101759.92;126692;1309;108754;-78
2021/12/18 02:48:24;;;;;;;16.90;6.70;;;;;;;2.54;83.20;101769.45;126853;1315;108811;-79
2021/12/18 02:51:29;;;;;;;14.90;7.00;;;;;;;2.51;83.23;101773.44;126620;1309;108757;-78
2021/12/18 02:54:37;;;;;;;16.30;6.80;;;;;;;2.48;83.38;101768.49;126751;1311;109163;-78
2021/12/18 02:57:43;;;;;;;13.20;5.50;;;;;;;2.53;83.28;101763.36;126772;1312;109020;-79
2021/12/18 03:00:49;;;;;;;11.00;6.10;;;;;;;2.62;83.30;101762.64;126617;1309;108797;-77
2021/12/18 03:03:56;;;;;;;14.30;5.90;;;;;;;2.66;83.20;101765.45;126857;1309;108456;-77
2021/12/18 03:07:04;;;;;;;12.30;6.20;;;;;;;2.64;83.03;101754.98;126900;1309;108913;-79
2021/12/18 03:23:49;;;;;;;14.00;6.20;;;;;;;2.65;83.08;101752.50;127436;1309;108774;-78
2021/12/18 03:26:55;;;;;;;13.00;6.00;;;;;;;2.75;83.14;101742.56;126892;1312;108012;-81
2021/12/18 03:30:00;;;;;;;13.50;5.80;;;;;;;2.82;82.90;101739.84;126851;1309;108689;-79
2021/12/18 03:33:06;;;;;;;11.50;5.70;;;;;;;2.78;82.70;101743.54;126639;1309;110005;-78
2021/12/18 03:36:11;;;;;;;16.10;6.90;;;;;;;2.77;82.90;101742.13;126664;1316;109045;-81
2021/12/18 03:39:17;;;;;;;13.80;6.20;;;;;;;2.77;82.89;101739.34;126845;1312;109006;-80
2021/12/18 03:42:22;;;;;;;15.60;5.90;;;;;;;2.77;82.99;101730.71;126796;1309;108865;-83
2021/12/18 03:45:28;;;;;;;14.10;6.50;;;;;;;2.85;82.88;101726.35;126866;1313;108715;-80
2021/12/18 03:48:33;;;;;;;14.50;6.30;;;;;;;2.91;82.81;101724.12;126832;1309;108842;-80
2021/12/18 03:51:39;;;;;;;13.00;6.20;;;;;;;2.98;82.71;101720.31;126784;1316;108687;-79
2021/12/18 03:54:45;;;;;;;11.10;5.70;;;;;;;2.98;82.46;101722.79;126695;1309;108913;-81
2021/12/18 03:57:50;;;;;;;11.40;5.20;;;;;;;2.93;82.63;101723.52;127619;1312;108427;-82
2021/12/18 04:00:56;;;;;;;11.60;5.70;;;;;;;2.96;82.68;101725.85;126760;1309;108742;-78
2021/12/18 04:04:02;;;;;;;10.50;4.90;;;;;;;2.96;82.65;101723.19;126944;1309;108777;-80
2021/12/18 04:07:08;;;;;;;12.70;6.50;;;;;;;3.02;82.57;101730.00;126931;1309;108741;-78
2021/12/18 04:10:17;;;;;;;11.00;5.90;;;;;;;3.05;82.48;101728.09;126894;1309;108774;-79
2021/12/18 04:13:23;;;;;;;11.50;5.50;;;;;;;3.04;82.25;101731.13;126950;1309;108841;-79
2021/12/18 04:16:29;;;;;;;14.90;5.90;;;;;;;3.02;82.44;101727.52;126935;1309;108947;-78
2021/12/18 04:19:35;;;;;;;20.80;7.00;;;;;;;3.03;82.56;101718.19;126896;1309;108908;-79
2021/12/18 04:22:40;;;;;;;11.90;5.10;;;;;;;3.09;82.61;101712.09;126948;1309;109018;-77
2021/12/18 04:25:46;;;;;;;9.10;4.80;;;;;;;3.12;82.35;101713.00;126768;1309;108987;-77
2021/12/18 04:28:52;;;;;;;10.80;4.70;;;;;;;3.16;82.28;101715.63;126815;1309;108737;-76
2021/12/18 04:31:57;;;;;;;8.70;5.00;;;;;;;3.18;82.35;101710.98;126495;1309;108739;-77
2021/12/18 04:35:03;;;;;;;10.10;5.00;;;;;;;3.16;82.04;101712.30;126665;1310;108828;-77
2021/12/18 04:38:09;;;;;;;11.20;4.80;;;;;;;3.10;81.93;101715.02;126574;1309;108881;-77
2021/12/18 04:41:21;;;;;;;9.30;5.00;;;;;;;3.01;82.03;101711.55;126638;1313;108734;-76
2021/12/18 04:44:27;;;;;;;12.30;5.10;;;;;;;2.95;82.21;101707.60;126879;1309;107173;-80
2021/12/18 04:47:32;;;;;;;20.80;10.00;;;;;;;2.96;82.28;101708.46;126914;1309;108875;-79
2021/12/18 04:50:38;;;;;;;11.00;4.50;;;;;;;2.94;82.04;101714.86;126935;1309;108879;-79
2021/12/18 04:53:43;;;;;;;13.20;4.60;;;;;;;2.92;82.28;101722.83;126741;1309;108793;-81
2021/12/18 04:56:48;;;;;;;10.50;4.60;;;;;;;2.96;82.27;101717.41;126899;1309;108777;-81
2021/12/18 04:59:54;;;;;;;11.10;5.00;;;;;;;3.02;82.26;101717.31;126813;1309;109033;-82
2021/12/18 05:03:04;;;;;;;13.30;6.90;;;;;;;3.03;81.94;101719.92;126943;1309;108441;-80
2021/12/18 05:06:10;;;;;;;10.90;5.20;;;;;;;2.98;81.88;101727.20;126973;1309;108961;-80
2021/12/18 05:09:17;;;;;;;16.50;7.00;;;;;;;2.91;81.87;101736.25;126895;1309;108965;-80
2021/12/18 05:12:22;;;;;;;12.00;5.80;;;;;;;2.91;81.98;101733.13;126829;1309;108902;-81
2021/12/18 05:15:28;;;;;;;37.70;15.70;;;;;;;2.92;81.92;101726.21;126620;1312;108974;-81
2021/12/18 05:18:33;;;;;;;338.40;140.00;;;;;;;2.95;82.11;101726.42;126704;1309;109204;-80
2021/12/18 05:21:39;;;;;;;65.50;29.20;;;;;;;2.96;81.62;101732.33;126818;1309;108763;-80
2021/12/18 05:24:44;;;;;;;116.40;46.70;;;;;;;2.94;81.79;101726.27;126821;1309;108850;-79
2021/12/18 05:27:50;;;;;;;62.80;23.90;;;;;;;2.91;81.51;101728.53;127284;1315;108742;-79
2021/12/18 05:30:55;;;;;;;84.00;33.60;;;;;;;2.86;81.48;101727.85;127058;1315;108922;-78
2021/12/18 05:34:03;;;;;;;54.30;24.00;;;;;;;2.88;81.55;101726.88;126742;1309;108730;-82
2021/12/18 05:37:18;;;;;;;16.80;8.30;;;;;;;2.95;81.62;101719.75;126933;1315;108706;-80
2021/12/18 05:40:25;;;;;;;11.70;5.50;;;;;;;2.98;81.27;101720.98;127246;1309;107613;-79
2021/12/18 05:43:31;;;;;;;9.30;4.90;;;;;;;2.98;81.01;101713.14;126853;1309;108726;-79
2021/12/18 05:46:36;;;;;;;9.90;5.00;;;;;;;2.90;81.02;101712.75;126587;1315;108864;-80
2021/12/18 05:49:42;;;;;;;11.70;5.40;;;;;;;2.88;81.18;101711.24;127347;1309;109354;-80
2021/12/18 05:52:48;;;;;;;11.50;5.70;;;;;;;2.89;81.40;101705.59;126935;1315;108747;-79
2021/12/18 05:55:53;;;;;;;10.10;5.10;;;;;;;2.92;81.23;101714.41;127580;1309;107755;-78
2021/12/18 05:58:59;;;;;;;14.40;6.20;;;;;;;2.93;81.24;101719.98;126785;1315;109000;-76
2021/12/18 06:02:05;;;;;;;11.10;5.50;;;;;;;2.93;80.81;101719.81;126919;1313;108082;-79
2021/12/18 06:05:11;;;;;;;13.20;6.30;;;;;;;2.89;80.98;101724.91;127097;1309;108803;-79
2021/12/18 06:08:17;;;;;;;10.10;6.00;;;;;;;2.86;80.99;101726.27;126829;1315;108847;-78
2021/12/18 06:11:23;;;;;;;11.20;5.70;;;;;;;2.90;81.27;101720.83;126931;1309;108998;-79
2021/12/18 06:14:29;;;;;;;10.80;5.60;;;;;;;2.95;81.19;101715.86;126924;1316;107688;-79
2021/12/18 06:17:34;;;;;;;14.20;6.00;;;;;;;3.01;80.83;101722.13;126909;1309;108659;-81
2021/12/18 06:20:39;;;;;;;11.40;6.20;;;;;;;3.00;80.18;101724.27;126894;1313;108747;-83
2021/12/18 06:23:47;;;;;;;12.50;6.40;;;;;;;2.92;80.33;101717.93;126655;1309;108933;-80
2021/12/18 06:26:53;;;;;;;11.90;6.20;;;;;;;2.94;80.87;101714.34;126730;1315;108614;-77
2021/12/18 06:29:58;;;;;;;10.30;6.50;;;;;;;2.95;80.55;101713.77;126594;1312;108937;-79
2021/12/18 06:33:04;;;;;;;11.80;5.80;;;;;;;2.90;80.58;101709.44;126514;1317;107781;-78
2021/12/18 06:36:10;;;;;;;14.20;6.90;;;;;;;2.83;80.69;101707.96;126507;1310;109262;-78
2021/12/18 06:39:16;;;;;;;13.50;6.50;;;;;;;2.80;80.67;101706.55;126462;1312;108727;-82
2021/12/18 06:42:21;;;;;;;11.10;6.20;;;;;;;2.79;80.75;101711.30;126546;1316;108763;-80
2021/12/18 06:45:27;;;;;;;12.90;7.00;;;;;;;2.82;81.12;101712.92;126642;1318;109081;-76
2021/12/18 06:48:32;;;;;;;17.10;8.30;;;;;;;2.93;81.02;101709.98;126546;1318;109676;-75
2021/12/18 06:51:38;;;;;;;46.50;24.00;;;;;;;2.96;80.82;101701.92;126507;1317;108828;-78
2021/12/18 06:54:43;;;;;;;106.30;46.20;;;;;;;2.95;80.78;101697.06;126385;1313;108924;-82
2021/12/18 06:57:49;;;;;;;26.90;11.50;;;;;;;2.91;80.81;101694.27;126549;1315;108889;-81
2021/12/18 07:00:54;;;;;;;168.00;65.60;;;;;;;2.83;80.72;101692.17;126504;1312;108762;-79
2021/12/18 07:04:00;;;;;;;194.20;70.30;;;;;;;2.84;80.98;101694.76;126508;1317;109002;-78
2021/12/18 07:07:05;;;;;;;29.50;13.40;;;;;;;2.88;80.90;101700.86;126520;1312;107469;-77
2021/12/18 07:10:13;;;;;;;32.50;17.70;;;;;;;2.89;80.84;101695.92;126468;1312;108496;-79
2021/12/18 07:13:19;;;;;;;47.40;24.30;;;;;;;2.92;80.95;101684.36;126603;1315;109002;-77
2021/12/18 07:16:24;;;;;;;34.80;17.10;;;;;;;2.96;80.88;101679.10;126509;1315;108938;-78
2021/12/18 07:19:29;;;;;;;43.30;21.40;;;;;;;2.96;80.63;101672.41;126587;1315;108898;-76
2021/12/18 07:22:35;;;;;;;26.60;13.20;;;;;;;2.92;80.86;101679.29;126679;1315;108804;-78
2021/12/18 07:25:40;;;;;;;23.00;11.30;;;;;;;2.95;80.89;101680.02;126750;1315;107828;-81
2021/12/18 07:28:46;;;;;;;22.80;8.80;;;;;;;2.99;81.00;101667.36;126700;1316;108897;-83
2021/12/18 07:31:51;;;;;;;18.70;9.70;;;;;;;3.01;80.62;101660.95;126640;1316;108939;-83
2021/12/18 07:34:57;;;;;;;21.30;9.40;;;;;;;2.95;80.56;101663.48;126605;1315;108927;-81
2021/12/18 07:38:03;;;;;;;21.10;10.40;;;;;;;2.94;80.91;101658.59;126626;1312;108539;-78
2021/12/18 07:41:08;;;;;;;20.10;10.40;;;;;;;3.00;80.90;101660.13;126768;1312;109002;-76
2021/12/18 07:44:14;;;;;;;22.00;10.90;;;;;;;3.00;80.90;101660.65;126691;1315;108980;-78
2021/12/18 07:47:19;;;;;;;23.20;9.90;;;;;;;2.97;81.02;101652.33;126538;1315;108970;-77
2021/12/18 07:50:25;;;;;;;22.70;9.90;;;;;;;2.96;81.17;101651.14;126614;1315;108887;-78
2021/12/18 07:53:30;;;;;;;27.80;11.90;;;;;;;2.98;81.03;101654.41;126724;1315;106629;-77
2021/12/18 07:56:36;;;;;;;22.30;10.70;;;;;;;3.02;81.14;101654.55;126641;1316;108994;-76
2021/12/18 07:59:42;;;;;;;27.00;11.90;;;;;;;3.08;81.09;101658.16;126733;1315;108791;-74
2021/12/18 08:02:47;;;;;;;23.40;10.80;;;;;;;3.06;80.90;101662.30;126612;1315;108726;-76
2021/12/18 08:05:53;;;;;;;22.00;10.90;;;;;;;2.89;80.79;101670.61;126301;1315;108991;-76
2021/12/18 08:08:58;;;;;;;17.70;10.00;;;;;;;2.75;81.04;101676.15;126359;1315;109064;-78
2021/12/18 08:12:05;;;;;;;22.20;10.00;;;;;;;2.71;81.32;101675.98;126415;1315;108333;-76
2021/12/18 08:15:12;;;;;;;20.70;10.90;;;;;;;2.67;81.43;101679.66;126596;1316;108730;-77
2021/12/18 08:18:17;;;;;;;21.90;12.00;;;;;;;2.68;81.59;101685.61;126612;1315;109009;-77
2021/12/18 08:21:22;;;;;;;23.60;12.60;;;;;;;2.63;81.61;101682.64;126297;1315;108738;-77
2021/12/18 08:24:28;;;;;;;24.00;13.10;;;;;;;2.52;81.90;101691.73;126512;1315;108690;-75
2021/12/18 08:27:33;;;;;;;26.30;13.40;;;;;;;2.47;81.99;101705.30;126388;1315;108773;-75
2021/12/18 08:30:40;;;;;;;29.70;15.20;;;;;;;2.45;82.45;101720.33;126406;1315;108789;-75
2021/12/18 08:33:45;;;;;;;31.60;16.50;;;;;;;2.37;82.83;101721.17;126497;1315;108918;-76
2021/12/18 08:36:51;;;;;;;31.20;15.40;;;;;;;2.35;82.64;101715.09;126358;1315;108996;-76
2021/12/18 08:39:56;;;;;;;31.30;15.70;;;;;;;2.41;82.87;101712.25;126337;1315;108897;-75
2021/12/18 08:43:02;;;;;;;31.50;15.40;;;;;;;2.43;82.66;101704.95;126658;1315;107374;-79
2021/12/18 08:46:07;;;;;;;28.00;14.90;;;;;;;2.46;82.88;101702.02;126604;1313;108709;-78
2021/12/18 08:49:13;;;;;;;26.80;15.90;;;;;;;2.40;82.82;101694.73;126529;1315;107424;-78
2021/12/18 08:52:19;;;;;;;27.60;15.60;;;;;;;2.36;83.04;101689.59;126689;1315;109692;-78
2021/12/18 08:55:25;;;;;;;28.40;15.50;;;;;;;2.41;82.94;101686.78;126547;1316;108768;-78
2021/12/18 08:58:30;;;;;;;32.70;17.30;;;;;;;2.50;82.82;101682.18;126343;1315;108796;-78
2021/12/18 09:01:36;;;;;;;32.50;15.80;;;;;;;2.53;82.68;101681.83;126536;1316;108905;-77
2021/12/18 09:04:41;;;;;;;25.30;13.90;;;;;;;2.56;82.55;101676.98;126552;1315;109046;-78
2021/12/18 09:07:47;;;;;;;25.90;14.40;;;;;;;2.60;82.62;101665.23;126392;1315;107706;-79
2021/12/18 09:10:52;;;;;;;27.70;15.70;;;;;;;2.72;82.44;101656.25;126303;1315;108841;-79
2021/12/18 09:13:58;;;;;;;27.40;14.30;;;;;;;2.88;82.36;101641.32;126296;1315;108799;-78
2021/12/18 09:17:03;;;;;;;26.00;13.90;;;;;;;2.99;82.25;101626.39;126357;1315;108874;-78
2021/12/18 09:20:11;;;;;;;21.60;12.50;;;;;;;3.05;82.02;101625.22;126430;1315;109171;-77
2021/12/18 09:23:18;;;;;;;20.60;11.80;;;;;;;2.99;82.08;101625.16;126407;1316;109050;-78
2021/12/18 09:26:24;;;;;;;25.20;13.20;;;;;;;2.98;82.37;101612.58;126316;1311;108695;-77
2021/12/18 09:29:29;;;;;;;28.50;13.90;;;;;;;3.10;82.55;101610.05;126450;1315;108667;-77
2021/12/18 09:32:35;;;;;;;28.00;14.80;;;;;;;3.19;82.27;101606.15;126665;1311;107426;-77
2021/12/18 09:35:41;;;;;;;23.10;12.80;;;;;;;3.10;81.90;101607.42;126662;1315;108748;-78
2021/12/18 09:38:47;;;;;;;25.30;13.00;;;;;;;2.95;82.06;101604.44;126456;1316;108740;-78
2021/12/18 09:41:54;;;;;;;21.50;13.00;;;;;;;2.93;82.35;101590.44;126495;1309;109068;-78
2021/12/18 09:44:59;;;;;;;25.00;13.00;;;;;;;3.03;82.35;101580.67;126618;1315;107477;-77
2021/12/18 09:48:07;;;;;;;21.70;13.90;;;;;;;3.14;82.46;101571.05;126569;1313;108718;-78
2021/12/18 09:51:22;;;;;;;21.70;13.40;;;;;;;3.22;82.07;101565.19;126514;1315;108796;-76
2021/12/18 09:54:28;;;;;;;25.30;14.50;;;;;;;3.25;81.90;101564.15;126432;1314;109177;-78
2021/12/18 09:57:33;;;;;;;27.60;13.70;;;;;;;3.27;81.88;101563.75;126420;1311;108722;-78
2021/12/18 10:00:39;;;;;;;21.30;12.30;;;;;;;3.33;81.84;101558.52;126658;1315;109925;-79
2021/12/18 10:03:48;;;;;;;21.30;12.80;;;;;;;3.37;81.72;101555.31;126444;1312;108796;-79
2021/12/18 10:06:54;;;;;;;23.60;13.30;;;;;;;3.37;81.29;101550.73;126289;1311;233298;-79
2021/12/18 10:10:01;;;;;;;25.10;14.30;;;;;;;3.30;81.48;101552.48;126460;1315;108781;-79
2021/12/18 10:13:09;;;;;;;32.90;16.10;;;;;;;3.31;81.75;101547.70;126442;1314;107367;-76
2021/12/18 10:16:15;;;;;;;34.70;16.80;;;;;;;3.30;81.40;101539.67;126345;1310;108867;-78
2021/12/18 10:19:28;;;;;;;31.40;14.70;;;;;;;3.34;81.73;101528.91;126454;1315;107976;-81
2021/12/18 10:22:34;;;;;;;21.90;12.20;;;;;;;3.41;81.60;101521.71;126446;1311;108812;-78
2021/12/18 10:25:43;;;;;;;22.70;12.90;;;;;;;3.35;80.89;101522.37;126447;1315;108700;-77
2021/12/18 10:28:49;;;;;;;26.50;14.80;;;;;;;3.33;81.28;101527.20;126535;1310;108779;-78
2021/12/18 10:31:55;;;;;;;20.60;13.00;;;;;;;3.37;81.11;101522.26;126460;1310;108974;-77
2021/12/18 10:35:00;;;;;;;22.20;13.60;;;;;;;3.34;81.07;101520.64;126528;1315;107908;-78
2021/12/18 10:38:06;;;;;;;26.70;14.00;;;;;;;3.27;80.93;101522.20;126459;1314;108742;-79
2021/12/18 10:41:28;;;;;;;24.50;13.20;;;;;;;3.27;81.24;101520.66;126455;1315;108735;-78
2021/12/18 10:44:33;;;;;;;21.70;12.90;;;;;;;3.29;81.05;101519.84;126457;1312;109035;-79
2021/12/18 10:47:48;;;;;;;25.50;13.80;;;;;;;3.23;80.89;101514.84;126484;1312;108343;-78
2021/12/18 10:50:54;;;;;;;29.50;15.50;;;;;;;3.19;81.00;101500.27;126404;1312;108828;-78
2021/12/18 10:54:08;;;;;;;25.10;14.80;;;;;;;3.18;80.92;101496.48;126449;1310;108746;-78
2021/12/18 10:57:22;;;;;;;32.20;16.50;;;;;;;3.09;81.15;101490.04;126483;1310;108771;-77
2021/12/18 11:00:37;;;;;;;32.70;17.50;;;;;;;3.06;81.34;101485.27;126413;1316;106760;-78
2021/12/18 11:03:45;;;;;;;25.30;14.50;;;;;;;3.07;81.13;101490.14;126495;1312;108951;-77
2021/12/18 11:06:51;;;;;;;29.60;14.20;;;;;;;3.00;81.24;101475.70;126517;1313;108763;-78
2021/12/18 11:10:12;;;;;;;40.10;22.20;;;;;;;3.06;81.45;101452.55;126385;1316;107467;-79
2021/12/18 11:16:43;;;;;;;37.10;20.30;;;;;;;3.15;81.22;101446.81;126416;1312;108872;-78
2021/12/18 11:19:49;;;;;;;30.80;17.10;;;;;;;3.11;81.17;101445.63;126361;1310;108920;-79
2021/12/18 11:22:55;;;;;;;39.50;21.00;;;;;;;2.96;81.34;101448.67;126461;1312;107720;-78
2021/12/18 11:26:01;;;;;;;33.90;19.10;;;;;;;2.97;81.50;101454.77;126407;1315;108692;-79
2021/12/18 11:29:07;;;;;;;37.10;20.80;;;;;;;2.97;81.41;101459.52;126339;1310;108677;-78
2021/12/18 11:32:14;;;;;;;37.60;20.80;;;;;;;2.91;81.47;101461.52;126325;1312;109719;-79
2021/12/18 11:35:23;;;;;;;43.30;21.70;;;;;;;2.88;81.66;101464.89;126296;1313;108750;-78
2021/12/18 11:38:29;;;;;;;50.40;23.30;;;;;;;2.79;81.71;101461.59;126373;1313;108837;-78
2021/12/18 11:41:35;;;;;;;50.40;24.30;;;;;;;2.79;82.01;101454.08;126307;1312;108921;-79
2021/12/18 11:44:42;;;;;;;42.00;22.00;;;;;;;2.86;82.01;101442.63;126446;1313;108970;-77
2021/12/18 11:47:56;;;;;;;65.20;30.70;;;;;;;2.86;81.83;101438.42;126723;1312;108821;-78
2021/12/18 11:51:13;;;;;;;58.80;29.40;;;;;;;2.89;81.87;101447.09;126874;1310;109106;-77
2021/12/18 11:54:43;;;;;;;68.40;29.60;;;;;;;2.86;82.13;101421.55;126920;1309;107919;-78
2021/12/18 11:57:51;;;;;;;69.90;28.40;;;;;;;2.89;82.18;101409.29;126527;1309;108709;-78
2021/12/18 12:01:02;;;;;;;57.60;26.20;;;;;;;2.93;81.94;101420.48;126754;1312;109180;-79
2021/12/18 12:04:07;;;;;;;61.50;27.60;;;;;;;2.91;81.88;101409.50;126864;1315;107692;-79
2021/12/18 12:07:21;;;;;;;72.40;34.90;;;;;;;2.95;81.78;101404.57;126628;1309;108797;-79
2021/12/18 12:10:47;;;;;;;53.50;26.60;;;;;;;3.00;81.90;101398.75;126332;1310;109544;-78
2021/12/18 12:14:19;;;;;;;52.70;25.00;;;;;;;3.06;81.76;101398.23;126601;1309;108910;-77
2021/12/18 12:17:27;;;;;;;49.10;23.20;;;;;;;3.08;81.58;101403.42;126541;1315;106905;-77
2021/12/18 12:20:40;;;;;;;49.20;23.80;;;;;;;3.02;81.61;101395.48;126430;1315;108849;-78
2021/12/18 12:24:02;;;;;;;41.20;19.10;;;;;;;3.00;81.61;101393.29;126356;1315;107763;-78
2021/12/18 12:27:20;;;;;;;;;;;;;;;2.90;81.74;101388.83;126458;1309;108914;-77
2021/12/18 12:30:36;;;;;;;49.60;24.20;;;;;;;2.91;81.72;101386.34;126289;1312;108795;-78
2021/12/18 12:33:43;;;;;;;46.80;21.90;;;;;;;2.95;81.90;101384.36;126388;1311;107405;-79
2021/12/18 12:36:50;;;;;;;48.10;23.00;;;;;;;2.95;81.75;101378.92;126373;1312;108785;-78
2021/12/18 12:40:03;;;;;;;51.20;23.20;;;;;;;2.89;81.70;101369.70;126456;1309;108579;-78
2021/12/18 12:43:21;;;;;;;71.20;32.90;;;;;;;2.90;81.98;101364.95;126415;1312;108920;-79
2021/12/18 12:46:27;;;;;;;47.00;23.00;;;;;;;2.91;81.92;101353.13;126426;1312;108709;-78
2021/12/18 12:49:33;;;;;;;53.10;24.70;;;;;;;2.91;82.03;101346.27;126422;1312;108869;-79
2021/12/18 12:52:52;;;;;;;61.30;28.70;;;;;;;2.93;82.05;101347.55;126538;1311;108525;-78
2021/12/18 12:55:57;;;;;;;211.30;75.20;;;;;;;2.91;82.04;101327.83;126493;1315;108944;-80
2021/12/18 12:59:25;;;;;;;228.60;92.10;;;;;;;2.91;82.18;101331.15;126350;1311;108921;-79
2021/12/18 13:02:32;;;;;;;70.70;33.00;;;;;;;2.90;82.14;101326.23;126254;1312;108740;-77
2021/12/18 13:05:48;;;;;;;347.10;148.40;;;;;;;2.87;82.31;101319.91;126357;1314;108879;-78
2021/12/18 13:08:53;;;;;;;78.40;36.80;;;;;;;2.95;82.47;101330.08;126354;1315;109074;-79
2021/12/18 13:12:05;;;;;;;124.50;56.10;;;;;;;2.98;82.45;101328.86;126287;1311;108908;-78
2021/12/18 13:15:14;;;;;;;76.00;37.80;;;;;;;2.97;82.40;101319.24;126302;1312;108884;-79
2021/12/18 13:18:21;;;;;;;88.80;42.20;;;;;;;2.94;82.36;101307.25;126385;1312;107207;-79
2021/12/18 13:21:30;;;;;;;48.00;25.00;;;;;;;2.98;82.53;101294.58;126329;1312;108936;-79
2021/12/18 13:24:35;;;;;;;44.30;22.40;;;;;;;3.05;82.48;101291.41;126503;1312;108935;-79
2021/12/18 13:27:43;;;;;;;44.50;24.00;;;;;;;3.10;82.56;101288.50;126554;1312;108932;-78
2021/12/18 13:30:52;;;;;;;43.70;23.60;;;;;;;3.11;82.57;101291.28;126320;1312;108756;-78
2021/12/18 13:34:08;;;;;;;44.70;24.50;;;;;;;3.03;82.58;101287.46;126322;1310;108839;-78
2021/12/18 13:37:14;;;;;;;46.20;23.50;;;;;;;2.96;82.95;101283.79;126317;1314;108985;-79
2021/12/18 13:40:20;;;;;;;45.30;24.70;;;;;;;2.91;83.08;101278.96;126329;1312;108781;-77
2021/12/18 13:43:26;;;;;;;45.00;23.40;;;;;;;2.93;83.01;101278.67;126339;1312;107477;-77
2021/12/18 13:46:33;;;;;;;43.10;23.90;;;;;;;2.98;83.05;101263.30;126374;1312;108137;-76
2021/12/18 13:49:38;;;;;;;42.40;23.60;;;;;;;3.06;82.88;101266.58;126428;1309;107746;-77
2021/12/18 13:52:46;;;;;;;50.60;28.50;;;;;;;3.09;82.89;101259.34;126289;1312;108874;-78
2021/12/18 13:55:56;;;;;;;98.10;46.90;;;;;;;3.05;82.94;101254.69;126409;1313;106629;-78
2021/12/18 13:59:12;;;;;;;62.10;34.70;;;;;;;3.04;83.00;101255.05;126405;1309;106814;-78
2021/12/18 14:02:22;;;;;;;67.20;37.60;;;;;;;3.01;83.14;101251.89;126444;1311;108785;-77
2021/12/18 14:05:28;;;;;;;62.30;35.50;;;;;;;3.01;83.14;101230.13;126495;1312;108932;-77
2021/12/18 14:08:37;;;;;;;86.10;51.50;;;;;;;3.07;83.18;101223.48;126595;1311;108817;-77
2021/12/18 14:11:50;;;;;;;77.30;44.70;;;;;;;3.11;83.13;101217.46;126458;1312;108752;-77
2021/12/18 14:14:57;;;;;;;94.00;53.70;;;;;;;3.17;83.16;101216.07;126607;1310;108641;-78
2021/12/18 14:18:03;;;;;;;35.00;21.30;;;;;;;3.12;83.23;101220.35;126829;1309;109063;-77
2021/12/18 14:21:09;;;;;;;56.60;33.10;;;;;;;3.03;83.25;101242.15;126533;1312;108950;-77
2021/12/18 14:24:16;;;;;;;50.90;29.60;;;;;;;3.01;83.63;101230.10;126470;1313;109041;-74
2021/12/18 14:27:22;;;;;;;38.10;22.70;;;;;;;3.05;83.79;101227.45;126375;1311;108620;-78
2021/12/18 14:30:32;;;;;;;47.10;27.10;;;;;;;3.02;83.71;101232.52;126415;1310;108422;-80
2021/12/18 14:33:53;;;;;;;34.90;21.90;;;;;;;3.01;83.78;101225.86;126548;1311;108649;-76
2021/12/18 14:37:07;;;;;;;39.20;25.10;;;;;;;2.98;84.03;101218.65;126522;1312;109798;-76
2021/12/18 14:40:18;;;;;;;44.40;26.90;;;;;;;3.04;83.73;101212.90;126505;1309;108931;-77
2021/12/18 14:43:25;;;;;;;38.80;24.00;;;;;;;3.10;83.85;101211.89;126431;1311;108985;-79